sensor_id;sensor_type;location;lat;lon;timestamp;temperature;humidity
37560;DHT22;23398;50.928;7.084;2024-02-21T00:00:13;13.50;66.20
37560;DHT22;23398;50.928;7.084;2024-02-21T00:02:40;13.50;66.30
37560;DHT22;23398;50.928;7.084;2024-02-21T00:05:05;13.50;66.20
37560;DHT22;23398;50.928;7.084;2024-02-21T00:07:31;13.50;66.20
37560;DHT22;23398;50.928;7.084;2024-02-21T00:09:56;13.50;66.10
37560;DHT22;23398;50.928;7.084;2024-02-21T00:12:22;13.50;66.10
37560;DHT22;23398;50.928;7.084;2024-02-21T00:14:48;13.50;66.10
37560;DHT22;23398;50.928;7.084;2024-02-21T00:17:13;13.50;66.90
37560;DHT22;23398;50.928;7.084;2024-02-21T00:19:39;13.50;66.10
37560;DHT22;23398;50.928;7.084;2024-02-21T00:22:04;13.60;66.10
37560;DHT22;23398;50.928;7.084;2024-02-21T00:24:30;13.50;66.10
37560;DHT22;23398;50.928;7.084;2024-02-21T00:26:55;13.50;66.10
37560;DHT22;23398;50.928;7.084;2024-02-21T00:29:21;13.50;66.00
37560;DHT22;23398;50.928;7.084;2024-02-21T00:31:48;13.60;66.10
37560;DHT22;23398;50.928;7.084;2024-02-21T00:34:14;13.50;66.10
37560;DHT22;23398;50.928;7.084;2024-02-21T00:36:40;13.60;66.10
37560;DHT22;23398;50.928;7.084;2024-02-21T00:39:05;13.60;66.10
37560;DHT22;23398;50.928;7.084;2024-02-21T00:41:32;13.60;66.10
37560;DHT22;23398;50.928;7.084;2024-02-21T00:43:57;13.60;66.10
37560;DHT22;23398;50.928;7.084;2024-02-21T00:46:23;13.60;66.10
37560;DHT22;23398;50.928;7.084;2024-02-21T00:48:48;13.60;66.10
37560;DHT22;23398;50.928;7.084;2024-02-21T00:51:16;13.60;66.20
37560;DHT22;23398;50.928;7.084;2024-02-21T00:53:42;13.60;66.20
37560;DHT22;23398;50.928;7.084;2024-02-21T00:56:08;13.60;66.20
37560;DHT22;23398;50.928;7.084;2024-02-21T00:58:33;13.60;66.20
37560;DHT22;23398;50.928;7.084;2024-02-21T01:01:00;13.60;66.10
37560;DHT22;23398;50.928;7.084;2024-02-21T01:03:26;13.60;66.10
37560;DHT22;23398;50.928;7.084;2024-02-21T01:05:51;13.60;66.10
37560;DHT22;23398;50.928;7.084;2024-02-21T01:08:17;13.60;66.10
37560;DHT22;23398;50.928;7.084;2024-02-21T01:10:43;13.60;66.20
37560;DHT22;23398;50.928;7.084;2024-02-21T01:13:08;13.60;66.20
37560;DHT22;23398;50.928;7.084;2024-02-21T01:15:34;13.60;66.30
37560;DHT22;23398;50.928;7.084;2024-02-21T01:18:01;13.60;66.30
37560;DHT22;23398;50.928;7.084;2024-02-21T01:20:26;13.60;66.30
37560;DHT22;23398;50.928;7.084;2024-02-21T01:22:52;13.60;66.30
37560;DHT22;23398;50.928;7.084;2024-02-21T01:25:17;13.60;66.40
37560;DHT22;23398;50.928;7.084;2024-02-21T01:27:43;13.60;66.40
37560;DHT22;23398;50.928;7.084;2024-02-21T01:30:09;13.50;66.40
37560;DHT22;23398;50.928;7.084;2024-02-21T01:32:36;13.50;66.40
37560;DHT22;23398;50.928;7.084;2024-02-21T01:35:01;13.50;66.40
37560;DHT22;23398;50.928;7.084;2024-02-21T01:37:27;13.50;66.50
37560;DHT22;23398;50.928;7.084;2024-02-21T01:39:53;13.50;66.60
37560;DHT22;23398;50.928;7.084;2024-02-21T01:42:18;13.50;66.50
37560;DHT22;23398;50.928;7.084;2024-02-21T01:44:44;13.50;66.50
37560;DHT22;23398;50.928;7.084;2024-02-21T01:47:11;13.50;66.50
37560;DHT22;23398;50.928;7.084;2024-02-21T01:49:40;13.50;66.50
37560;DHT22;23398;50.928;7.084;2024-02-21T01:52:06;13.50;66.60
37560;DHT22;23398;50.928;7.084;2024-02-21T01:54:32;13.50;66.70
37560;DHT22;23398;50.928;7.084;2024-02-21T01:56:58;13.50;66.70
37560;DHT22;23398;50.928;7.084;2024-02-21T01:59:23;13.50;66.80
37560;DHT22;23398;50.928;7.084;2024-02-21T02:01:51;13.50;66.80
37560;DHT22;23398;50.928;7.084;2024-02-21T02:04:17;13.40;66.70
37560;DHT22;23398;50.928;7.084;2024-02-21T02:06:43;13.40;66.80
37560;DHT22;23398;50.928;7.084;2024-02-21T02:09:08;13.40;66.80
37560;DHT22;23398;50.928;7.084;2024-02-21T02:11:34;13.40;66.80
37560;DHT22;23398;50.928;7.084;2024-02-21T02:14:00;13.40;66.80
37560;DHT22;23398;50.928;7.084;2024-02-21T02:16:26;13.40;66.80
37560;DHT22;23398;50.928;7.084;2024-02-21T02:18:51;13.40;66.80
37560;DHT22;23398;50.928;7.084;2024-02-21T02:21:27;13.40;66.80
37560;DHT22;23398;50.928;7.084;2024-02-21T02:23:54;13.40;66.90
37560;DHT22;23398;50.928;7.084;2024-02-21T02:26:19;13.40;66.90
37560;DHT22;23398;50.928;7.084;2024-02-21T02:28:45;13.40;67.00
37560;DHT22;23398;50.928;7.084;2024-02-21T02:31:11;13.40;67.10
37560;DHT22;23398;50.928;7.084;2024-02-21T02:33:36;13.30;67.10
37560;DHT22;23398;50.928;7.084;2024-02-21T02:36:02;13.30;67.20
37560;DHT22;23398;50.928;7.084;2024-02-21T02:38:27;13.30;67.20
37560;DHT22;23398;50.928;7.084;2024-02-21T02:40:53;13.30;67.40
37560;DHT22;23398;50.928;7.084;2024-02-21T02:43:18;13.30;67.50
37560;DHT22;23398;50.928;7.084;2024-02-21T02:45:44;13.30;67.60
37560;DHT22;23398;50.928;7.084;2024-02-21T02:48:10;13.30;67.60
37560;DHT22;23398;50.928;7.084;2024-02-21T02:50:35;13.30;67.80
37560;DHT22;23398;50.928;7.084;2024-02-21T02:53:01;13.30;67.80
37560;DHT22;23398;50.928;7.084;2024-02-21T02:55:27;13.30;67.90
37560;DHT22;23398;50.928;7.084;2024-02-21T02:57:52;13.30;67.90
37560;DHT22;23398;50.928;7.084;2024-02-21T03:00:18;13.30;67.90
37560;DHT22;23398;50.928;7.084;2024-02-21T03:02:45;13.30;68.00
37560;DHT22;23398;50.928;7.084;2024-02-21T03:05:16;13.30;68.00
37560;DHT22;23398;50.928;7.084;2024-02-21T03:07:43;13.30;68.10
37560;DHT22;23398;50.928;7.084;2024-02-21T03:10:09;13.30;68.10
37560;DHT22;23398;50.928;7.084;2024-02-21T03:12:35;13.30;68.10
37560;DHT22;23398;50.928;7.084;2024-02-21T03:15:02;13.30;68.10
37560;DHT22;23398;50.928;7.084;2024-02-21T03:17:28;13.30;68.10
37560;DHT22;23398;50.928;7.084;2024-02-21T03:19:54;13.30;68.10
37560;DHT22;23398;50.928;7.084;2024-02-21T03:22:21;13.20;68.00
37560;DHT22;23398;50.928;7.084;2024-02-21T03:24:46;13.30;68.10
37560;DHT22;23398;50.928;7.084;2024-02-21T03:27:12;13.20;67.90
37560;DHT22;23398;50.928;7.084;2024-02-21T03:29:38;13.20;67.90
37560;DHT22;23398;50.928;7.084;2024-02-21T03:32:03;13.20;67.90
37560;DHT22;23398;50.928;7.084;2024-02-21T03:34:29;13.20;67.90
37560;DHT22;23398;50.928;7.084;2024-02-21T03:36:54;13.20;68.00
37560;DHT22;23398;50.928;7.084;2024-02-21T03:39:20;13.20;68.20
37560;DHT22;23398;50.928;7.084;2024-02-21T03:41:46;13.20;68.10
37560;DHT22;23398;50.928;7.084;2024-02-21T03:44:12;13.20;68.10
37560;DHT22;23398;50.928;7.084;2024-02-21T03:46:38;13.20;68.30
37560;DHT22;23398;50.928;7.084;2024-02-21T03:49:03;13.20;68.30
37560;DHT22;23398;50.928;7.084;2024-02-21T03:51:29;13.10;68.30
37560;DHT22;23398;50.928;7.084;2024-02-21T03:53:54;13.10;68.30
37560;DHT22;23398;50.928;7.084;2024-02-21T03:56:20;13.00;68.20
37560;DHT22;23398;50.928;7.084;2024-02-21T03:58:45;13.10;68.40
37560;DHT22;23398;50.928;7.084;2024-02-21T04:01:11;13.10;68.50
37560;DHT22;23398;50.928;7.084;2024-02-21T04:03:37;13.10;68.50
37560;DHT22;23398;50.928;7.084;2024-02-21T04:06:03;13.10;68.50
37560;DHT22;23398;50.928;7.084;2024-02-21T04:08:29;13.10;68.50
37560;DHT22;23398;50.928;7.084;2024-02-21T04:10:54;13.10;68.60
37560;DHT22;23398;50.928;7.084;2024-02-21T04:13:20;13.10;68.50
37560;DHT22;23398;50.928;7.084;2024-02-21T04:15:45;13.10;68.60
37560;DHT22;23398;50.928;7.084;2024-02-21T04:18:11;13.10;68.60
37560;DHT22;23398;50.928;7.084;2024-02-21T04:20:36;13.10;69.30
37560;DHT22;23398;50.928;7.084;2024-02-21T04:23:02;13.10;68.60
37560;DHT22;23398;50.928;7.084;2024-02-21T04:25:28;13.10;68.60
37560;DHT22;23398;50.928;7.084;2024-02-21T04:27:53;13.10;68.60
37560;DHT22;23398;50.928;7.084;2024-02-21T04:30:19;13.10;68.60
37560;DHT22;23398;50.928;7.084;2024-02-21T04:32:44;13.10;68.50
37560;DHT22;23398;50.928;7.084;2024-02-21T04:35:10;13.00;68.50
37560;DHT22;23398;50.928;7.084;2024-02-21T04:37:35;13.00;68.50
37560;DHT22;23398;50.928;7.084;2024-02-21T04:40:01;13.10;68.60
37560;DHT22;23398;50.928;7.084;2024-02-21T04:42:27;13.00;68.40
37560;DHT22;23398;50.928;7.084;2024-02-21T04:44:52;13.00;68.50
37560;DHT22;23398;50.928;7.084;2024-02-21T04:47:18;13.00;68.50
37560;DHT22;23398;50.928;7.084;2024-02-21T04:49:45;13.00;68.60
37560;DHT22;23398;50.928;7.084;2024-02-21T04:52:11;13.00;68.60
37560;DHT22;23398;50.928;7.084;2024-02-21T04:54:37;13.00;68.60
37560;DHT22;23398;50.928;7.084;2024-02-21T04:57:02;13.00;68.70
37560;DHT22;23398;50.928;7.084;2024-02-21T04:59:28;13.00;68.80
37560;DHT22;23398;50.928;7.084;2024-02-21T05:01:54;13.00;68.00
37560;DHT22;23398;50.928;7.084;2024-02-21T05:04:20;13.00;68.70
37560;DHT22;23398;50.928;7.084;2024-02-21T05:06:46;13.00;68.70
37560;DHT22;23398;50.928;7.084;2024-02-21T05:09:12;13.00;68.80
37560;DHT22;23398;50.928;7.084;2024-02-21T05:11:38;13.00;69.60
37560;DHT22;23398;50.928;7.084;2024-02-21T05:14:04;13.00;68.80
37560;DHT22;23398;50.928;7.084;2024-02-21T05:16:30;13.00;68.80
37560;DHT22;23398;50.928;7.084;2024-02-21T05:18:55;13.00;68.80
37560;DHT22;23398;50.928;7.084;2024-02-21T05:21:26;13.00;68.80
37560;DHT22;23398;50.928;7.084;2024-02-21T05:23:53;13.00;68.60
37560;DHT22;23398;50.928;7.084;2024-02-21T05:26:25;13.00;68.80
37560;DHT22;23398;50.928;7.084;2024-02-21T05:28:51;13.00;68.70
37560;DHT22;23398;50.928;7.084;2024-02-21T05:31:20;13.00;68.80
37560;DHT22;23398;50.928;7.084;2024-02-21T05:33:47;13.00;68.90
37560;DHT22;23398;50.928;7.084;2024-02-21T05:36:13;13.00;68.80
37560;DHT22;23398;50.928;7.084;2024-02-21T05:38:39;13.00;68.70
37560;DHT22;23398;50.928;7.084;2024-02-21T05:41:05;13.00;68.70
37560;DHT22;23398;50.928;7.084;2024-02-21T05:43:30;13.00;68.80
37560;DHT22;23398;50.928;7.084;2024-02-21T05:45:56;13.00;68.70
37560;DHT22;23398;50.928;7.084;2024-02-21T05:48:23;13.00;68.70
37560;DHT22;23398;50.928;7.084;2024-02-21T05:50:49;13.00;68.70
37560;DHT22;23398;50.928;7.084;2024-02-21T05:53:14;13.00;68.90
37560;DHT22;23398;50.928;7.084;2024-02-21T05:55:40;13.00;68.70
37560;DHT22;23398;50.928;7.084;2024-02-21T05:58:06;13.00;68.70
37560;DHT22;23398;50.928;7.084;2024-02-21T06:00:32;13.00;68.70
37560;DHT22;23398;50.928;7.084;2024-02-21T06:02:58;13.00;68.70
37560;DHT22;23398;50.928;7.084;2024-02-21T06:05:24;13.00;68.70
37560;DHT22;23398;50.928;7.084;2024-02-21T06:07:50;12.90;68.60
37560;DHT22;23398;50.928;7.084;2024-02-21T06:10:15;12.90;68.60
37560;DHT22;23398;50.928;7.084;2024-02-21T06:12:41;13.00;68.80
37560;DHT22;23398;50.928;7.084;2024-02-21T06:15:07;13.00;68.70
37560;DHT22;23398;50.928;7.084;2024-02-21T06:17:33;13.00;69.40
37560;DHT22;23398;50.928;7.084;2024-02-21T06:19:58;13.00;68.70
37560;DHT22;23398;50.928;7.084;2024-02-21T06:22:24;12.90;68.50
37560;DHT22;23398;50.928;7.084;2024-02-21T06:24:49;13.00;68.70
37560;DHT22;23398;50.928;7.084;2024-02-21T06:27:15;12.90;68.50
37560;DHT22;23398;50.928;7.084;2024-02-21T06:29:42;12.90;68.50
37560;DHT22;23398;50.928;7.084;2024-02-21T06:32:07;12.90;68.60
37560;DHT22;23398;50.928;7.084;2024-02-21T06:34:33;13.00;68.70
37560;DHT22;23398;50.928;7.084;2024-02-21T06:36:58;12.90;68.70
37560;DHT22;23398;50.928;7.084;2024-02-21T06:39:24;12.90;68.70
37560;DHT22;23398;50.928;7.084;2024-02-21T06:41:50;12.90;68.70
37560;DHT22;23398;50.928;7.084;2024-02-21T06:44:19;13.00;68.80
37560;DHT22;23398;50.928;7.084;2024-02-21T06:46:44;12.90;68.70
37560;DHT22;23398;50.928;7.084;2024-02-21T06:49:10;12.90;68.90
37560;DHT22;23398;50.928;7.084;2024-02-21T06:51:42;12.90;68.90
37560;DHT22;23398;50.928;7.084;2024-02-21T06:54:08;12.90;68.80
37560;DHT22;23398;50.928;7.084;2024-02-21T06:56:35;13.00;68.90
37560;DHT22;23398;50.928;7.084;2024-02-21T06:59:00;13.00;68.80
37560;DHT22;23398;50.928;7.084;2024-02-21T07:01:26;12.90;68.60
37560;DHT22;23398;50.928;7.084;2024-02-21T07:03:52;13.00;68.70
37560;DHT22;23398;50.928;7.084;2024-02-21T07:06:17;13.00;68.70
37560;DHT22;23398;50.928;7.084;2024-02-21T07:08:43;13.00;68.60
37560;DHT22;23398;50.928;7.084;2024-02-21T07:11:08;13.00;68.50
37560;DHT22;23398;50.928;7.084;2024-02-21T07:13:34;13.00;68.50
37560;DHT22;23398;50.928;7.084;2024-02-21T07:16:00;13.00;68.60
37560;DHT22;23398;50.928;7.084;2024-02-21T07:18:25;13.00;68.50
37560;DHT22;23398;50.928;7.084;2024-02-21T07:20:52;13.10;68.60
37560;DHT22;23398;50.928;7.084;2024-02-21T07:23:18;13.10;68.50
37560;DHT22;23398;50.928;7.084;2024-02-21T07:25:43;13.10;68.50
37560;DHT22;23398;50.928;7.084;2024-02-21T07:28:09;13.10;69.30
37560;DHT22;23398;50.928;7.084;2024-02-21T07:30:35;13.10;68.40
37560;DHT22;23398;50.928;7.084;2024-02-21T07:33:01;13.20;68.40
37560;DHT22;23398;50.928;7.084;2024-02-21T07:35:26;13.20;68.30
37560;DHT22;23398;50.928;7.084;2024-02-21T07:37:52;13.20;68.30
37560;DHT22;23398;50.928;7.084;2024-02-21T07:40:18;13.20;68.20
37560;DHT22;23398;50.928;7.084;2024-02-21T07:42:44;13.20;68.20
37560;DHT22;23398;50.928;7.084;2024-02-21T07:45:10;13.30;69.00
37560;DHT22;23398;50.928;7.084;2024-02-21T07:47:36;13.30;68.10
37560;DHT22;23398;50.928;7.084;2024-02-21T07:50:03;13.30;68.10
37560;DHT22;23398;50.928;7.084;2024-02-21T07:52:29;13.30;68.20
37560;DHT22;23398;50.928;7.084;2024-02-21T07:54:54;13.30;68.20
37560;DHT22;23398;50.928;7.084;2024-02-21T07:57:20;13.30;68.10
37560;DHT22;23398;50.928;7.084;2024-02-21T07:59:45;13.30;68.10
37560;DHT22;23398;50.928;7.084;2024-02-21T08:02:13;13.40;68.10
37560;DHT22;23398;50.928;7.084;2024-02-21T08:04:39;13.30;67.90
37560;DHT22;23398;50.928;7.084;2024-02-21T08:07:05;13.40;68.10
37560;DHT22;23398;50.928;7.084;2024-02-21T08:09:30;13.40;68.00
37560;DHT22;23398;50.928;7.084;2024-02-21T08:11:56;13.40;67.90
37560;DHT22;23398;50.928;7.084;2024-02-21T08:14:22;13.40;67.80
37560;DHT22;23398;50.928;7.084;2024-02-21T08:16:50;13.40;67.80
37560;DHT22;23398;50.928;7.084;2024-02-21T08:19:16;13.40;67.70
37560;DHT22;23398;50.928;7.084;2024-02-21T08:21:42;13.40;67.60
37560;DHT22;23398;50.928;7.084;2024-02-21T08:24:07;13.40;67.70
37560;DHT22;23398;50.928;7.084;2024-02-21T08:26:33;13.50;67.80
37560;DHT22;23398;50.928;7.084;2024-02-21T08:28:59;13.50;67.80
37560;DHT22;23398;50.928;7.084;2024-02-21T08:31:28;13.50;67.80
37560;DHT22;23398;50.928;7.084;2024-02-21T08:33:57;13.50;67.70
37560;DHT22;23398;50.928;7.084;2024-02-21T08:36:28;13.60;67.60
37560;DHT22;23398;50.928;7.084;2024-02-21T08:38:55;13.60;67.60
37560;DHT22;23398;50.928;7.084;2024-02-21T08:41:21;13.60;67.40
37560;DHT22;23398;50.928;7.084;2024-02-21T08:43:49;13.70;67.60
37560;DHT22;23398;50.928;7.084;2024-02-21T08:46:14;13.70;67.60
37560;DHT22;23398;50.928;7.084;2024-02-21T08:48:40;13.80;67.60
37560;DHT22;23398;50.928;7.084;2024-02-21T08:51:06;13.90;67.60
37560;DHT22;23398;50.928;7.084;2024-02-21T08:53:31;13.90;67.30
37560;DHT22;23398;50.928;7.084;2024-02-21T08:55:57;14.00;67.20
37560;DHT22;23398;50.928;7.084;2024-02-21T08:58:22;14.10;67.00
37560;DHT22;23398;50.928;7.084;2024-02-21T09:00:49;14.10;66.80
37560;DHT22;23398;50.928;7.084;2024-02-21T09:03:16;14.20;66.60
37560;DHT22;23398;50.928;7.084;2024-02-21T09:05:43;14.30;66.40
37560;DHT22;23398;50.928;7.084;2024-02-21T09:08:08;14.30;66.20
37560;DHT22;23398;50.928;7.084;2024-02-21T09:10:34;14.40;66.10
37560;DHT22;23398;50.928;7.084;2024-02-21T09:13:00;14.50;66.10
37560;DHT22;23398;50.928;7.084;2024-02-21T09:15:25;14.60;66.20
37560;DHT22;23398;50.928;7.084;2024-02-21T09:17:52;14.70;66.50
37560;DHT22;23398;50.928;7.084;2024-02-21T09:20:17;14.90;66.70
37560;DHT22;23398;50.928;7.084;2024-02-21T09:22:43;15.10;66.80
37560;DHT22;23398;50.928;7.084;2024-02-21T09:25:09;15.40;66.70
37560;DHT22;23398;50.928;7.084;2024-02-21T09:27:37;15.70;66.40
37560;DHT22;23398;50.928;7.084;2024-02-21T09:30:04;16.10;65.80
37560;DHT22;23398;50.928;7.084;2024-02-21T09:32:30;16.40;65.20
37560;DHT22;23398;50.928;7.084;2024-02-21T09:34:56;16.60;64.20
37560;DHT22;23398;50.928;7.084;2024-02-21T09:37:21;16.90;63.40
37560;DHT22;23398;50.928;7.084;2024-02-21T09:39:47;17.10;62.70
37560;DHT22;23398;50.928;7.084;2024-02-21T09:42:14;17.20;61.70
37560;DHT22;23398;50.928;7.084;2024-02-21T09:44:42;17.30;61.10
37560;DHT22;23398;50.928;7.084;2024-02-21T09:47:15;17.40;60.90
37560;DHT22;23398;50.928;7.084;2024-02-21T09:49:43;17.50;60.30
37560;DHT22;23398;50.928;7.084;2024-02-21T09:52:10;17.60;60.30
37560;DHT22;23398;50.928;7.084;2024-02-21T09:54:39;17.60;59.80
37560;DHT22;23398;50.928;7.084;2024-02-21T09:57:08;17.70;59.70
37560;DHT22;23398;50.928;7.084;2024-02-21T09:59:33;17.70;59.40
37560;DHT22;23398;50.928;7.084;2024-02-21T10:01:59;17.90;59.10
37560;DHT22;23398;50.928;7.084;2024-02-21T10:04:26;17.90;59.00
37560;DHT22;23398;50.928;7.084;2024-02-21T10:06:53;18.00;58.80
37560;DHT22;23398;50.928;7.084;2024-02-21T10:09:28;18.10;58.70
37560;DHT22;23398;50.928;7.084;2024-02-21T10:12:07;18.20;58.50
37560;DHT22;23398;50.928;7.084;2024-02-21T10:14:33;18.30;58.60
37560;DHT22;23398;50.928;7.084;2024-02-21T10:16:59;18.30;58.10
37560;DHT22;23398;50.928;7.084;2024-02-21T10:19:24;18.40;58.00
37560;DHT22;23398;50.928;7.084;2024-02-21T10:22:07;18.50;57.90
37560;DHT22;23398;50.928;7.084;2024-02-21T10:24:34;18.50;57.10
37560;DHT22;23398;50.928;7.084;2024-02-21T10:27:02;18.60;57.40
37560;DHT22;23398;50.928;7.084;2024-02-21T10:29:29;18.60;57.10
37560;DHT22;23398;50.928;7.084;2024-02-21T10:34:30;18.80;56.70
37560;DHT22;23398;50.928;7.084;2024-02-21T10:37:09;18.80;56.90
37560;DHT22;23398;50.928;7.084;2024-02-21T10:39:38;18.80;55.80
37560;DHT22;23398;50.928;7.084;2024-02-21T10:42:04;18.80;56.00
37560;DHT22;23398;50.928;7.084;2024-02-21T10:44:32;18.80;55.80
37560;DHT22;23398;50.928;7.084;2024-02-21T10:46:58;18.70;55.60
37560;DHT22;23398;50.928;7.084;2024-02-21T10:49:25;18.80;55.90
37560;DHT22;23398;50.928;7.084;2024-02-21T10:51:55;18.70;55.90
37560;DHT22;23398;50.928;7.084;2024-02-21T10:54:34;18.70;56.00
37560;DHT22;23398;50.928;7.084;2024-02-21T10:57:04;18.70;55.80
37560;DHT22;23398;50.928;7.084;2024-02-21T10:59:32;18.80;56.00
37560;DHT22;23398;50.928;7.084;2024-02-21T11:01:57;18.70;55.70
37560;DHT22;23398;50.928;7.084;2024-02-21T11:04:24;18.80;55.80
37560;DHT22;23398;50.928;7.084;2024-02-21T11:06:51;18.80;55.50
37560;DHT22;23398;50.928;7.084;2024-02-21T11:09:16;18.80;55.50
37560;DHT22;23398;50.928;7.084;2024-02-21T11:11:44;18.80;55.50
37560;DHT22;23398;50.928;7.084;2024-02-21T11:14:11;18.80;55.10
37560;DHT22;23398;50.928;7.084;2024-02-21T11:16:41;18.80;55.30
37560;DHT22;23398;50.928;7.084;2024-02-21T11:19:08;18.80;55.00
37560;DHT22;23398;50.928;7.084;2024-02-21T11:21:35;18.80;55.20
37560;DHT22;23398;50.928;7.084;2024-02-21T11:24:04;18.70;55.10
37560;DHT22;23398;50.928;7.084;2024-02-21T11:26:30;18.70;55.00
37560;DHT22;23398;50.928;7.084;2024-02-21T11:29:00;18.60;55.30
37560;DHT22;23398;50.928;7.084;2024-02-21T11:31:41;18.60;54.60
37560;DHT22;23398;50.928;7.084;2024-02-21T11:34:16;18.50;54.40
37560;DHT22;23398;50.928;7.084;2024-02-21T11:36:49;18.50;54.60
37560;DHT22;23398;50.928;7.084;2024-02-21T11:39:20;18.50;54.80
37560;DHT22;23398;50.928;7.084;2024-02-21T11:41:48;18.50;54.70
37560;DHT22;23398;50.928;7.084;2024-02-21T11:44:23;18.50;54.80
37560;DHT22;23398;50.928;7.084;2024-02-21T11:46:49;18.40;55.10
37560;DHT22;23398;50.928;7.084;2024-02-21T11:49:15;18.40;54.70
37560;DHT22;23398;50.928;7.084;2024-02-21T11:51:40;18.40;54.60
37560;DHT22;23398;50.928;7.084;2024-02-21T11:54:06;18.40;54.60
37560;DHT22;23398;50.928;7.084;2024-02-21T11:56:32;18.30;54.50
37560;DHT22;23398;50.928;7.084;2024-02-21T11:58:59;18.30;55.20
37560;DHT22;23398;50.928;7.084;2024-02-21T12:01:24;18.30;54.60
37560;DHT22;23398;50.928;7.084;2024-02-21T12:03:50;18.30;54.60
37560;DHT22;23398;50.928;7.084;2024-02-21T12:06:16;18.30;54.70
37560;DHT22;23398;50.928;7.084;2024-02-21T12:08:47;18.20;54.50
37560;DHT22;23398;50.928;7.084;2024-02-21T12:11:22;18.20;54.40
37560;DHT22;23398;50.928;7.084;2024-02-21T12:14:02;18.20;54.20
37560;DHT22;23398;50.928;7.084;2024-02-21T12:16:29;18.20;54.50
37560;DHT22;23398;50.928;7.084;2024-02-21T12:18:57;18.10;54.40
37560;DHT22;23398;50.928;7.084;2024-02-21T12:21:41;18.10;54.60
37560;DHT22;23398;50.928;7.084;2024-02-21T12:24:13;18.10;54.40
37560;DHT22;23398;50.928;7.084;2024-02-21T12:26:40;18.10;54.30
37560;DHT22;23398;50.928;7.084;2024-02-21T12:29:06;18.00;54.20
37560;DHT22;23398;50.928;7.084;2024-02-21T12:31:31;17.90;54.00
37560;DHT22;23398;50.928;7.084;2024-02-21T12:33:57;17.90;54.10
37560;DHT22;23398;50.928;7.084;2024-02-21T12:36:23;17.80;54.20
37560;DHT22;23398;50.928;7.084;2024-02-21T12:38:49;17.70;54.30
37560;DHT22;23398;50.928;7.084;2024-02-21T12:41:15;17.60;54.60
37560;DHT22;23398;50.928;7.084;2024-02-21T12:43:41;17.60;54.90
37560;DHT22;23398;50.928;7.084;2024-02-21T12:46:06;17.60;55.10
37560;DHT22;23398;50.928;7.084;2024-02-21T12:48:35;17.70;55.00
37560;DHT22;23398;50.928;7.084;2024-02-21T12:51:00;17.70;55.00
37560;DHT22;23398;50.928;7.084;2024-02-21T12:53:26;17.70;54.90
37560;DHT22;23398;50.928;7.084;2024-02-21T12:55:52;17.70;54.90
37560;DHT22;23398;50.928;7.084;2024-02-21T12:58:18;17.70;54.70
37560;DHT22;23398;50.928;7.084;2024-02-21T13:00:44;17.70;54.80
37560;DHT22;23398;50.928;7.084;2024-02-21T13:03:10;17.70;54.80
37560;DHT22;23398;50.928;7.084;2024-02-21T13:05:36;17.70;54.60
37560;DHT22;23398;50.928;7.084;2024-02-21T13:08:02;17.70;54.40
37560;DHT22;23398;50.928;7.084;2024-02-21T13:10:28;17.70;54.20
37560;DHT22;23398;50.928;7.084;2024-02-21T13:12:53;17.70;54.40
37560;DHT22;23398;50.928;7.084;2024-02-21T13:15:20;17.70;54.30
37560;DHT22;23398;50.928;7.084;2024-02-21T13:17:45;17.70;54.40
37560;DHT22;23398;50.928;7.084;2024-02-21T13:20:11;17.70;54.40
37560;DHT22;23398;50.928;7.084;2024-02-21T13:22:37;17.60;54.30
37560;DHT22;23398;50.928;7.084;2024-02-21T13:25:06;17.60;54.30
37560;DHT22;23398;50.928;7.084;2024-02-21T13:27:33;17.60;54.30
37560;DHT22;23398;50.928;7.084;2024-02-21T13:29:58;17.60;54.30
37560;DHT22;23398;50.928;7.084;2024-02-21T13:32:25;17.50;54.30
37560;DHT22;23398;50.928;7.084;2024-02-21T13:34:51;17.60;54.40
37560;DHT22;23398;50.928;7.084;2024-02-21T13:37:18;17.50;54.50
37560;DHT22;23398;50.928;7.084;2024-02-21T13:39:43;17.50;54.20
37560;DHT22;23398;50.928;7.084;2024-02-21T13:42:09;17.60;54.30
37560;DHT22;23398;50.928;7.084;2024-02-21T13:44:35;17.50;54.20
37560;DHT22;23398;50.928;7.084;2024-02-21T13:47:02;17.60;54.40
37560;DHT22;23398;50.928;7.084;2024-02-21T13:49:27;17.60;54.10
37560;DHT22;23398;50.928;7.084;2024-02-21T13:51:54;17.70;54.30
37560;DHT22;23398;50.928;7.084;2024-02-21T13:54:19;17.60;54.10
37560;DHT22;23398;50.928;7.084;2024-02-21T13:56:46;17.60;53.80
37560;DHT22;23398;50.928;7.084;2024-02-21T13:59:12;17.70;54.30
37560;DHT22;23398;50.928;7.084;2024-02-21T14:01:41;17.70;54.30
37560;DHT22;23398;50.928;7.084;2024-02-21T14:04:06;17.70;54.40
37560;DHT22;23398;50.928;7.084;2024-02-21T14:06:32;17.70;54.30
37560;DHT22;23398;50.928;7.084;2024-02-21T14:08:58;17.70;54.10
37560;DHT22;23398;50.928;7.084;2024-02-21T14:11:23;17.60;54.00
37560;DHT22;23398;50.928;7.084;2024-02-21T14:13:49;17.70;54.10
37560;DHT22;23398;50.928;7.084;2024-02-21T14:16:14;17.60;54.20
37560;DHT22;23398;50.928;7.084;2024-02-21T14:18:40;17.60;54.10
37560;DHT22;23398;50.928;7.084;2024-02-21T14:21:09;17.50;53.90
37560;DHT22;23398;50.928;7.084;2024-02-21T14:23:38;17.60;54.00
37560;DHT22;23398;50.928;7.084;2024-02-21T14:26:04;17.50;53.80
37560;DHT22;23398;50.928;7.084;2024-02-21T14:28:30;17.50;53.80
37560;DHT22;23398;50.928;7.084;2024-02-21T14:30:55;17.50;54.00
37560;DHT22;23398;50.928;7.084;2024-02-21T14:33:23;17.50;54.10
37560;DHT22;23398;50.928;7.084;2024-02-21T14:35:50;17.40;53.80
37560;DHT22;23398;50.928;7.084;2024-02-21T14:38:16;17.40;53.90
37560;DHT22;23398;50.928;7.084;2024-02-21T14:40:42;17.40;54.10
37560;DHT22;23398;50.928;7.084;2024-02-21T14:43:08;17.40;54.00
37560;DHT22;23398;50.928;7.084;2024-02-21T14:45:34;17.40;54.60
37560;DHT22;23398;50.928;7.084;2024-02-21T14:47:59;17.30;53.90
37560;DHT22;23398;50.928;7.084;2024-02-21T14:50:25;17.30;53.80
37560;DHT22;23398;50.928;7.084;2024-02-21T14:52:50;17.20;53.80
37560;DHT22;23398;50.928;7.084;2024-02-21T14:55:17;17.20;53.90
37560;DHT22;23398;50.928;7.084;2024-02-21T14:57:43;17.10;53.90
37560;DHT22;23398;50.928;7.084;2024-02-21T15:00:10;17.10;54.00
37560;DHT22;23398;50.928;7.084;2024-02-21T15:02:36;17.00;53.90
37560;DHT22;23398;50.928;7.084;2024-02-21T15:05:02;16.90;53.80
37560;DHT22;23398;50.928;7.084;2024-02-21T15:07:32;16.90;53.90
37560;DHT22;23398;50.928;7.084;2024-02-21T15:09:57;16.90;54.00
37560;DHT22;23398;50.928;7.084;2024-02-21T15:12:23;16.80;54.00
37560;DHT22;23398;50.928;7.084;2024-02-21T15:14:49;16.80;54.20
37560;DHT22;23398;50.928;7.084;2024-02-21T15:17:15;16.80;54.20
37560;DHT22;23398;50.928;7.084;2024-02-21T15:19:41;16.70;54.20
37560;DHT22;23398;50.928;7.084;2024-02-21T15:22:13;16.70;54.20
37560;DHT22;23398;50.928;7.084;2024-02-21T15:24:39;16.70;54.20
37560;DHT22;23398;50.928;7.084;2024-02-21T15:27:06;16.60;54.10